Flugplatz Pattonville

Für EDTQ sind keine METAR/TAF Berichte vorhanden.
Es werden die Flugwettermeldungen vom Flugplatz Stuttgart in 19 km Entfernung angezeigt.

Bericht für EDDS

vom 01.12. um 09:50 UTC

Wind 16 kt aus 220° in Böen 29 kt

Sichtweite 10 km oder mehr

aufgelockert bewölkt in 2600 ft

Temperatur 8.0°C

Taupunkt 3.0°C

Luftfeuchtigkeit 71%

Luftdruck 1002 hPa

EDDS 010950Z 22016G29KT 180V250 9999 SCT026 08/03 Q1002 BECMG 23015G25KT

Prognose für EDDS

vom 01.12. um 05:00 UTC

Zwischen 06:00 UTC und 07:00 UTC

Wind 7 kt aus 200°

Sichtweite 10 km oder mehr

aufgebrochene Bewölkung in 1500 ft


Zwischen 07:00 und 09:00 UTC übergehend zu

Wind 12 kt aus 200°

Sichtweite 10 km oder mehr

aufgebrochene Bewölkung in 1500 ft


Zwischen 10:00 UTC und 15:00 UTC zeitweise

Wind 15 kt aus 220° in Böen 25 kt


Zwischen 12:00 UTC und 16:00 UTC zeitweise

Regen


Zwischen 17:00 UTC und 06:00 UTC zeitweise mit einer Wahrscheinlichkeit von 30%

Regenschauer

aufgebrochene Bewölkung in 2000 ft


Zwischen 20:00 und 23:00 UTC übergehend zu

Wind 7 kt aus 230°

Sichtweite 10 km oder mehr

aufgebrochene Bewölkung in 1500 ft

TAF EDDS 010500Z 0106/0206 20007KT 9999 BKN015 BECMG 0107/0109 20012KT TEMPO 0110/0115 22015G25KT TEMPO 0112/0116 RA PROB30 TEMPO 0117/0206 SHRA BKN020TCU BECMG 0120/0123 23007KT
Impressum